Time;durP1;ratioP1;P1;durP2;ratioP2;P2;SDS_P1;SDS_P2;PMS_P1;PMS_P2;Temp;Humidity;BMP_temperature;BMP_pressure;BME280_temperature;BME280_humidity;BME280_pressure;Samples;Min_cycle;Max_cycle;Signal;HPM_P1;HPM_P2
2022/10/30 00:00:34;;;;;;;20.88;15.32;;;14.90;99.90;;;;;;5062372;28;20074;-81
2022/10/30 00:03:00;;;;;;;23.25;14.30;;;14.90;99.90;;;;;;5046309;28;20068;-81
2022/10/30 00:05:26;;;;;;;21.50;14.60;;;14.90;99.90;;;;;;5044811;28;20048;-81
2022/10/30 00:07:55;;;;;;;21.38;14.60;;;14.80;99.90;;;;;;5031483;28;20074;-81
2022/10/30 00:10:20;;;;;;;28.67;15.73;;;14.80;99.90;;;;;;5057110;28;20044;-81
2022/10/30 00:12:46;;;;;;;23.13;14.80;;;14.80;99.90;;;;;;5042156;28;20053;-81
2022/10/30 00:15:12;;;;;;;23.33;14.65;;;14.80;99.90;;;;;;5045619;28;20048;-82
2022/10/30 00:17:38;;;;;;;22.20;14.27;;;14.80;99.90;;;;;;5062607;28;22560;-81
2022/10/30 00:20:05;;;;;;;21.80;15.38;;;14.70;99.90;;;;;;5047123;28;20076;-81
2022/10/30 00:22:31;;;;;;;25.02;16.85;;;14.70;99.90;;;;;;5045263;28;20052;-82
2022/10/30 00:24:56;;;;;;;28.08;18.52;;;14.60;99.90;;;;;;5025350;28;20055;-81
2022/10/30 00:27:22;;;;;;;27.90;19.17;;;14.70;99.90;;;;;;5057197;28;20093;-81
2022/10/30 00:29:48;;;;;;;28.90;17.98;;;14.60;99.90;;;;;;5063021;28;20040;-81
2022/10/30 00:32:14;;;;;;;26.10;18.05;;;14.60;99.90;;;;;;5046444;28;20055;-81
2022/10/30 00:34:39;;;;;;;25.88;17.55;;;14.60;99.90;;;;;;5029343;28;20037;-81
2022/10/30 00:37:05;;;;;;;24.65;15.75;;;14.60;99.90;;;;;;5013045;28;20037;-81
2022/10/30 00:39:31;;;;;;;20.52;15.40;;;14.50;99.90;;;;;;5027496;28;20055;-80
2022/10/30 00:41:57;;;;;;;23.95;16.08;;;14.50;99.90;;;;;;5045752;28;20047;-81
2022/10/30 00:44:44;;;;;;;23.88;15.13;;;14.50;99.90;;;;;;5029066;28;20055;-81
2022/10/30 00:47:43;;;;;;;20.67;14.18;;;14.50;99.90;;;;;;5045887;28;20155;-81
2022/10/30 00:50:18;;;;;;;23.55;14.68;;;14.50;99.90;;;;;;5060903;28;20410;-81
2022/10/30 00:53:14;;;;;;;23.00;14.27;;;14.40;99.90;;;;;;5045814;28;20056;-82
2022/10/30 00:55:49;;;;;;;22.33;14.43;;;14.40;99.90;;;;;;5058046;28;20071;-81
2022/10/30 00:58:21;;;;;;;19.33;13.93;;;14.30;99.90;;;;;;5078079;28;20119;-81
2022/10/30 01:00:53;;;;;;;22.55;13.73;;;14.30;99.90;;;;;;5060899;28;20113;-81
2022/10/30 01:03:21;;;;;;;19.30;13.30;;;14.40;99.90;;;;;;5046595;28;20449;-81
2022/10/30 01:05:52;;;;;;;19.92;13.82;;;14.40;99.90;;;;;;5062882;28;20465;-81
2022/10/30 01:08:18;;;;;;;20.42;13.38;;;14.40;99.90;;;;;;5044772;28;20113;-81
2022/10/30 01:10:46;;;;;;;20.67;13.73;;;14.40;99.90;;;;;;5058705;28;20041;-81
2022/10/30 01:13:12;;;;;;;19.42;13.02;;;14.40;99.90;;;;;;5054823;28;20127;-81
2022/10/30 01:15:59;;;;;;;18.58;13.55;;;14.40;99.90;;;;;;5058463;28;20124;-81
2022/10/30 01:19:00;;;;;;;19.45;12.40;;;14.40;99.90;;;;;;5051191;28;20067;-81
2022/10/30 01:21:50;;;;;;;19.40;12.55;;;14.40;99.90;;;;;;5043685;28;20083;-81
2022/10/30 01:24:28;;;;;;;23.23;13.48;;;14.40;99.90;;;;;;5058395;28;20138;-81
2022/10/30 01:27:03;;;;;;;17.85;12.52;;;14.40;99.90;;;;;;5060222;28;20123;-81
2022/10/30 01:29:54;;;;;;;20.83;14.20;;;14.40;99.90;;;;;;5036378;28;20041;-81
2022/10/30 01:32:37;;;;;;;21.35;12.75;;;14.40;99.90;;;;;;5055326;28;20526;-81
2022/10/30 01:35:32;;;;;;;20.10;13.30;;;14.40;99.90;;;;;;5077958;28;20044;-81
2022/10/30 01:38:27;;;;;;;19.35;12.65;;;14.40;99.90;;;;;;5043723;28;20047;-81
2022/10/30 01:40:53;;;;;;;19.05;12.85;;;14.50;99.90;;;;;;5053910;28;20052;-81
2022/10/30 01:43:19;;;;;;;20.27;13.68;;;14.50;99.90;;;;;;5028622;28;20047;-82
2022/10/30 01:45:54;;;;;;;22.95;13.23;;;14.50;99.90;;;;;;5041289;28;20102;-81
2022/10/30 01:48:50;;;;;;;18.08;12.63;;;14.50;99.90;;;;;;5061510;28;20040;-81
2022/10/30 01:51:23;;;;;;;19.33;12.88;;;14.50;99.90;;;;;;5040911;28;20041;-83
2022/10/30 01:53:49;;;;;;;17.33;12.00;;;14.50;99.90;;;;;;5044116;28;20078;-81
2022/10/30 01:56:38;;;;;;;20.30;13.77;;;14.40;99.90;;;;;;5042204;28;20083;-81
2022/10/30 01:59:19;;;;;;;23.92;15.00;;;14.40;99.90;;;;;;5046221;28;20048;-81
2022/10/30 02:01:46;;;;;;;20.50;13.45;;;14.40;99.90;;;;;;5038670;28;20159;-82
2022/10/30 02:04:12;;;;;;;21.70;13.27;;;14.40;99.90;;;;;;5025054;28;20053;-83
2022/10/30 02:06:39;;;;;;;17.33;12.85;;;14.40;99.90;;;;;;5028247;28;20045;-82
2022/10/30 02:09:05;;;;;;;19.02;13.13;;;14.40;99.90;;;;;;5045307;28;20160;-82
2022/10/30 02:11:33;;;;;;;19.95;13.88;;;14.40;99.90;;;;;;5030752;28;20040;-82
2022/10/30 02:14:03;;;;;;;25.70;13.90;;;14.40;99.90;;;;;;5059047;28;20040;-81
2022/10/30 02:16:30;;;;;;;22.08;14.23;;;14.40;99.90;;;;;;5041657;28;20052;-81
2022/10/30 02:18:56;;;;;;;27.90;14.23;;;14.40;99.90;;;;;;5060285;28;20061;-82
2022/10/30 02:21:22;;;;;;;22.42;14.40;;;14.40;99.90;;;;;;5046164;28;20406;-82
2022/10/30 02:23:48;;;;;;;20.30;14.48;;;14.30;99.90;;;;;;5011936;28;20048;-82
2022/10/30 02:26:13;;;;;;;22.38;14.73;;;14.30;99.90;;;;;;5043730;28;20505;-82
2022/10/30 02:28:39;;;;;;;18.95;14.73;;;14.30;99.90;;;;;;5026838;28;20044;-81
2022/10/30 02:31:06;;;;;;;21.60;14.52;;;14.30;99.90;;;;;;5045979;28;20064;-81
2022/10/30 02:33:32;;;;;;;24.27;15.23;;;14.20;99.90;;;;;;5011054;28;20160;-81
2022/10/30 02:35:57;;;;;;;18.42;13.70;;;14.20;99.90;;;;;;5039462;28;20468;-81
2022/10/30 02:38:23;;;;;;;20.95;13.90;;;14.10;99.90;;;;;;5031907;28;20048;-81
2022/10/30 02:40:49;;;;;;;19.60;14.20;;;14.10;99.90;;;;;;5027116;28;20729;-82
2022/10/30 02:43:15;;;;;;;21.88;15.30;;;14.10;99.90;;;;;;5045107;28;20585;-82
2022/10/30 02:45:41;;;;;;;19.30;14.60;;;14.10;99.90;;;;;;5023214;28;20041;-81
2022/10/30 02:48:06;;;;;;;21.38;15.02;;;14.10;99.90;;;;;;5027797;28;20188;-82
2022/10/30 02:50:32;;;;;;;17.83;14.27;;;14.00;99.90;;;;;;5032943;28;20045;-82
2022/10/30 02:52:59;;;;;;;23.92;15.98;;;14.00;99.90;;;;;;5043760;28;20173;-81
2022/10/30 02:55:24;;;;;;;23.65;15.27;;;14.00;99.90;;;;;;5026316;28;20101;-81
2022/10/30 02:57:50;;;;;;;25.40;15.75;;;14.00;99.90;;;;;;5038678;28;20110;-82
2022/10/30 03:00:16;;;;;;;21.25;14.45;;;13.90;99.90;;;;;;5054089;28;20079;-82
2022/10/30 03:02:42;;;;;;;20.02;14.85;;;14.00;99.90;;;;;;5030028;28;20044;-81
2022/10/30 03:05:08;;;;;;;19.77;14.23;;;13.90;99.90;;;;;;5024847;28;20041;-81
2022/10/30 03:07:33;;;;;;;18.73;14.75;;;13.90;99.90;;;;;;5065075;28;20040;-82
2022/10/30 03:09:59;;;;;;;21.38;15.30;;;13.90;99.90;;;;;;5032084;28;20059;-82
2022/10/30 03:12:25;;;;;;;21.27;14.73;;;13.90;99.90;;;;;;5026451;28;20118;-82
2022/10/30 03:14:50;;;;;;;19.17;14.02;;;13.90;99.90;;;;;;5046674;28;20037;-81
2022/10/30 03:17:16;;;;;;;19.90;13.73;;;13.90;99.90;;;;;;5059509;28;20053;-82
2022/10/30 03:19:42;;;;;;;20.70;14.18;;;13.80;99.90;;;;;;5035440;28;20045;-81
2022/10/30 03:22:08;;;;;;;20.25;14.15;;;13.80;99.90;;;;;;5067178;28;20040;-82
2022/10/30 03:24:33;;;;;;;21.27;14.40;;;13.80;99.90;;;;;;5030675;28;20381;-82
2022/10/30 03:27:02;;;;;;;17.67;13.45;;;13.80;99.90;;;;;;5054305;28;20052;-82
2022/10/30 03:29:31;;;;;;;23.27;16.33;;;13.80;99.90;;;;;;5046538;28;20495;-82
2022/10/30 03:31:56;;;;;;;20.55;15.00;;;13.70;99.90;;;;;;5048606;28;20037;-82
2022/10/30 03:34:22;;;;;;;20.25;14.85;;;13.70;99.90;;;;;;5047779;28;20041;-82
2022/10/30 03:36:48;;;;;;;22.65;15.65;;;13.70;99.90;;;;;;5054244;28;20505;-82
2022/10/30 03:39:14;;;;;;;22.38;15.18;;;13.70;99.90;;;;;;5026649;28;20056;-82
2022/10/30 03:41:42;;;;;;;21.40;14.45;;;13.70;99.90;;;;;;5051776;28;20028;-82
2022/10/30 03:44:08;;;;;;;19.80;14.98;;;13.70;99.90;;;;;;5059288;28;20048;-82
2022/10/30 03:46:34;;;;;;;19.75;15.13;;;13.70;99.90;;;;;;5049353;28;20040;-82
2022/10/30 03:49:00;;;;;;;22.58;16.17;;;13.60;99.90;;;;;;5045022;28;20047;-82
2022/10/30 03:51:26;;;;;;;21.10;15.93;;;13.60;99.90;;;;;;5017908;28;20040;-82
2022/10/30 03:53:51;;;;;;;21.50;15.27;;;13.60;99.90;;;;;;5035705;28;20498;-82
2022/10/30 03:56:18;;;;;;;19.02;14.07;;;13.50;99.90;;;;;;5030041;28;20491;-82
2022/10/30 03:58:47;;;;;;;20.65;14.82;;;13.50;99.90;;;;;;5027612;28;20120;-82
2022/10/30 04:01:12;;;;;;;22.85;15.63;;;13.50;99.90;;;;;;5041594;28;20094;-82
2022/10/30 04:03:38;;;;;;;24.60;16.10;;;13.50;99.90;;;;;;5028374;28;20137;-82
2022/10/30 04:06:05;;;;;;;21.73;16.40;;;13.50;99.90;;;;;;5057207;28;20036;-82
2022/10/30 04:08:31;;;;;;;22.58;15.85;;;13.50;99.90;;;;;;5038580;28;20758;-82
2022/10/30 04:10:57;;;;;;;25.58;16.50;;;13.40;99.90;;;;;;5049295;28;20060;-82
2022/10/30 04:13:23;;;;;;;21.08;15.52;;;13.40;99.90;;;;;;5031020;28;20226;-82
2022/10/30 04:15:49;;;;;;;23.08;14.88;;;13.30;99.90;;;;;;5046774;28;20045;-82
2022/10/30 04:18:15;;;;;;;27.40;15.55;;;13.30;99.90;;;;;;5046037;28;20506;-82
2022/10/30 04:20:42;;;;;;;20.73;16.73;;;13.30;99.90;;;;;;5050265;28;20056;-82
2022/10/30 04:23:17;;;;;;;23.33;16.50;;;13.30;99.90;;;;;;5064091;28;20045;-82
2022/10/30 04:25:43;;;;;;;21.48;15.75;;;13.20;99.90;;;;;;5052221;28;20618;-82
2022/10/30 04:28:10;;;;;;;25.02;16.08;;;13.10;99.90;;;;;;5026092;28;20066;-82
2022/10/30 04:30:37;;;;;;;22.92;15.55;;;13.10;99.90;;;;;;5054756;28;20041;-82
2022/10/30 04:33:10;;;;;;;22.88;15.68;;;13.00;99.90;;;;;;5059057;28;20519;-82
2022/10/30 04:35:36;;;;;;;24.20;14.55;;;13.00;99.90;;;;;;5055774;28;20037;-82
2022/10/30 04:38:04;;;;;;;21.95;15.93;;;13.00;99.90;;;;;;5016779;28;20040;-82
2022/10/30 04:40:33;;;;;;;21.58;15.10;;;12.90;99.90;;;;;;5051628;28;20199;-82
2022/10/30 04:42:59;;;;;;;24.92;14.98;;;12.90;99.90;;;;;;5048015;28;20052;-82
2022/10/30 04:45:25;;;;;;;22.10;15.70;;;12.90;99.90;;;;;;5046600;28;20044;-83
2022/10/30 04:47:51;;;;;;;21.50;15.82;;;12.90;99.90;;;;;;5032813;28;20041;-82
2022/10/30 04:50:18;;;;;;;22.30;18.35;;;12.80;99.90;;;;;;5043281;28;20040;-81
2022/10/30 04:52:44;;;;;;;27.08;16.50;;;12.80;99.90;;;;;;5062287;28;20053;-82
2022/10/30 04:55:10;;;;;;;22.65;15.90;;;12.80;99.90;;;;;;5038388;28;20048;-81
2022/10/30 04:57:37;;;;;;;25.42;18.13;;;12.80;99.90;;;;;;5060444;28;20468;-81
2022/10/30 05:00:05;;;;;;;22.25;16.38;;;12.80;99.90;;;;;;5033235;28;20040;-81
2022/10/30 05:02:31;;;;;;;24.67;18.02;;;12.80;99.90;;;;;;5038682;28;20036;-80
2022/10/30 05:04:56;;;;;;;24.17;17.10;;;12.80;99.90;;;;;;5056631;28;20696;-81
2022/10/30 05:07:22;;;;;;;22.85;17.55;;;12.80;99.90;;;;;;5043146;28;20140;-81
2022/10/30 05:09:48;;;;;;;21.85;17.00;;;12.80;99.90;;;;;;5037781;28;20514;-80
2022/10/30 05:12:15;;;;;;;27.38;18.58;;;12.80;99.90;;;;;;5056542;28;20446;-81
2022/10/30 05:14:41;;;;;;;23.13;17.55;;;12.80;99.90;;;;;;5054898;28;20045;-81
2022/10/30 05:17:07;;;;;;;31.60;18.90;;;12.80;99.90;;;;;;5041551;28;20427;-81
2022/10/30 05:19:33;;;;;;;23.88;17.30;;;12.80;99.90;;;;;;5033189;28;20079;-81
2022/10/30 05:21:59;;;;;;;22.83;18.33;;;12.80;99.90;;;;;;5029272;28;20049;-81
2022/10/30 05:24:25;;;;;;;26.35;17.50;;;12.80;99.90;;;;;;5043801;28;20053;-81
2022/10/30 05:26:51;;;;;;;21.63;17.20;;;12.80;99.90;;;;;;5014959;28;20087;-81
2022/10/30 05:29:17;;;;;;;22.55;17.63;;;12.70;99.90;;;;;;5048677;28;20052;-81
2022/10/30 05:31:42;;;;;;;23.60;17.90;;;12.70;99.90;;;;;;5015151;28;20105;-81
2022/10/30 05:34:08;;;;;;;27.88;18.58;;;12.70;99.90;;;;;;5055795;28;20067;-81
2022/10/30 05:36:34;;;;;;;29.60;20.55;;;12.70;99.90;;;;;;5009962;28;20454;-81
2022/10/30 05:39:01;;;;;;;27.08;20.20;;;12.80;99.90;;;;;;5041635;28;20040;-82
2022/10/30 05:41:28;;;;;;;33.50;20.30;;;12.80;99.90;;;;;;5065142;28;20061;-81
2022/10/30 05:43:53;;;;;;;24.83;20.10;;;12.80;99.90;;;;;;5054867;28;20041;-81
2022/10/30 05:46:19;;;;;;;25.00;19.15;;;12.70;99.90;;;;;;5037755;28;20454;-81
2022/10/30 05:48:45;;;;;;;28.05;18.98;;;12.70;99.90;;;;;;5022629;28;20404;-80
2022/10/30 05:51:11;;;;;;;24.13;16.63;;;12.70;99.90;;;;;;5056906;28;20049;-81
2022/10/30 05:53:37;;;;;;;25.85;18.33;;;12.70;99.90;;;;;;5027542;28;20045;-81
2022/10/30 05:56:03;;;;;;;28.95;18.88;;;12.70;99.90;;;;;;5063756;28;20032;-81
2022/10/30 05:58:32;;;;;;;29.70;21.60;;;12.60;99.90;;;;;;5060066;28;20044;-81
2022/10/30 06:00:57;;;;;;;27.27;20.45;;;12.70;99.90;;;;;;5045150;28;20495;-81
2022/10/30 06:03:23;;;;;;;24.80;18.92;;;12.60;99.90;;;;;;5062317;28;20101;-81
2022/10/30 06:05:49;;;;;;;26.70;19.92;;;12.60;99.90;;;;;;5024718;28;20040;-81
2022/10/30 06:08:18;;;;;;;24.27;19.08;;;12.70;99.90;;;;;;5028571;28;20044;-81
2022/10/30 06:10:44;;;;;;;24.30;20.33;;;12.60;99.90;;;;;;5043005;28;20125;-81
2022/10/30 06:13:10;;;;;;;27.63;19.02;;;12.60;99.90;;;;;;5023388;28;20120;-81
2022/10/30 06:15:36;;;;;;;34.38;20.98;;;12.60;99.90;;;;;;5045785;28;20572;-81
2022/10/30 06:18:02;;;;;;;31.63;20.33;;;12.60;99.90;;;;;;5027693;28;20068;-81
2022/10/30 06:20:29;;;;;;;25.75;19.20;;;12.60;99.90;;;;;;5045667;28;20139;-81
2022/10/30 06:22:57;;;;;;;25.05;20.83;;;12.60;99.90;;;;;;5045461;28;20056;-81
2022/10/30 06:25:23;;;;;;;22.48;18.42;;;12.50;99.90;;;;;;5031712;28;20064;-81
2022/10/30 06:27:49;;;;;;;25.70;19.50;;;12.50;99.90;;;;;;5025869;28;20211;-80
2022/10/30 06:30:16;;;;;;;30.60;18.30;;;12.50;99.90;;;;;;5030652;28;20048;-80
2022/10/30 06:32:42;;;;;;;28.00;17.70;;;12.40;99.90;;;;;;5049033;28;20041;-80
2022/10/30 06:35:08;;;;;;;22.30;17.25;;;12.40;99.90;;;;;;5014555;28;20175;-81
2022/10/30 06:37:34;;;;;;;26.00;18.83;;;12.40;99.90;;;;;;5033122;28;20036;-81
2022/10/30 06:40:00;;;;;;;28.70;20.98;;;12.30;99.90;;;;;;5054562;28;20136;-81
2022/10/30 06:42:26;;;;;;;21.45;16.83;;;12.30;99.90;;;;;;5040544;28;20136;-81
2022/10/30 06:44:51;;;;;;;27.23;18.92;;;12.20;99.90;;;;;;5029043;28;20170;-81
2022/10/30 06:47:17;;;;;;;26.33;19.45;;;12.20;99.90;;;;;;5039732;28;20036;-81
2022/10/30 06:49:43;;;;;;;29.23;20.02;;;12.20;99.90;;;;;;5045593;28;20143;-81
2022/10/30 06:52:09;;;;;;;25.10;18.45;;;12.20;99.90;;;;;;5057655;28;20857;-81
2022/10/30 06:54:34;;;;;;;24.88;17.10;;;12.20;99.90;;;;;;5042272;28;20048;-81
2022/10/30 06:57:00;;;;;;;24.40;18.25;;;12.20;99.90;;;;;;5058290;28;20592;-81
2022/10/30 06:59:26;;;;;;;24.35;16.85;;;12.10;99.90;;;;;;5045206;28;20047;-81
2022/10/30 07:01:52;;;;;;;22.02;16.48;;;12.00;99.90;;;;;;5044856;28;20074;-81
2022/10/30 07:04:18;;;;;;;23.80;16.10;;;12.00;99.90;;;;;;5037350;28;20588;-81
2022/10/30 07:06:44;;;;;;;22.85;18.38;;;12.00;99.90;;;;;;5010715;28;20040;-81
2022/10/30 07:09:10;;;;;;;26.88;19.75;;;12.00;99.90;;;;;;5039778;28;20052;-81
2022/10/30 07:11:36;;;;;;;31.35;23.38;;;12.00;99.90;;;;;;5040073;28;20049;-81
2022/10/30 07:14:02;;;;;;;29.67;21.67;;;12.10;99.90;;;;;;5041248;28;20127;-81
2022/10/30 07:16:27;;;;;;;30.35;24.20;;;12.20;99.90;;;;;;5057813;28;20444;-81
2022/10/30 07:18:55;;;;;;;27.10;21.92;;;12.30;99.90;;;;;;5037902;28;20036;-82
2022/10/30 07:21:25;;;;;;;28.77;21.50;;;12.40;99.90;;;;;;5036705;28;20479;-81
2022/10/30 07:23:50;;;;;;;;;;;12.50;99.90;;;;;;5049466;28;20590;-81
2022/10/30 07:26:16;;;;;;;32.70;23.50;;;12.50;99.90;;;;;;5038003;28;19925;-82
2022/10/30 07:28:42;;;;;;;33.28;23.10;;;12.50;99.90;;;;;;5036322;28;20101;-82
2022/10/30 07:31:08;;;;;;;31.60;25.48;;;12.50;99.90;;;;;;5058489;28;20048;-82
2022/10/30 07:33:34;;;;;;;28.52;23.48;;;12.60;99.90;;;;;;5036760;28;20041;-82
2022/10/30 07:36:00;;;;;;;34.78;25.40;;;12.70;99.90;;;;;;5033974;28;20095;-81
2022/10/30 07:38:26;;;;;;;29.88;22.13;;;12.70;99.90;;;;;;5034726;28;20036;-81
2022/10/30 07:40:52;;;;;;;30.65;21.50;;;12.70;99.90;;;;;;5036776;28;20109;-81
2022/10/30 07:43:19;;;;;;;37.28;26.50;;;12.80;99.90;;;;;;5026497;28;20139;-82
2022/10/30 07:45:45;;;;;;;29.42;23.40;;;12.80;99.90;;;;;;5047043;28;20097;-83
2022/10/30 07:48:11;;;;;;;28.08;22.13;;;12.80;99.90;;;;;;5056615;28;20453;-82
2022/10/30 07:50:37;;;;;;;34.38;23.85;;;12.90;99.90;;;;;;5026359;28;20046;-83
2022/10/30 07:53:02;;;;;;;32.95;24.30;;;12.90;99.90;;;;;;5043439;28;20097;-83
2022/10/30 07:55:28;;;;;;;29.15;22.70;;;12.90;99.90;;;;;;5011910;28;20043;-82
2022/10/30 07:57:54;;;;;;;29.20;21.95;;;12.90;99.90;;;;;;5059091;28;20386;-83
2022/10/30 08:00:21;;;;;;;29.02;24.10;;;12.90;99.90;;;;;;5054469;28;20673;-83
2022/10/30 08:02:54;;;;;;;27.30;22.75;;;13.00;99.90;;;;;;5015572;28;20127;-83
2022/10/30 08:05:20;;;;;;;31.25;24.02;;;13.00;99.90;;;;;;5058322;28;20063;-83
2022/10/30 08:07:47;;;;;;;29.17;22.33;;;13.00;99.90;;;;;;5051818;28;20033;-83
2022/10/30 08:10:13;;;;;;;27.15;23.02;;;13.00;99.90;;;;;;5025932;28;20044;-83
2022/10/30 08:12:40;;;;;;;27.50;23.27;;;13.10;99.90;;;;;;5051261;28;20094;-83
2022/10/30 08:15:07;;;;;;;26.23;23.25;;;13.20;99.90;;;;;;5041541;28;20044;-83
2022/10/30 08:17:39;;;;;;;30.45;26.08;;;13.20;99.90;;;;;;5019915;28;20047;-83
2022/10/30 08:20:06;;;;;;;32.55;23.67;;;13.30;99.90;;;;;;5030640;28;20083;-82
2022/10/30 08:22:31;;;;;;;29.35;23.67;;;13.30;99.90;;;;;;5033687;28;20064;-83
2022/10/30 08:24:57;;;;;;;29.00;23.70;;;13.40;99.90;;;;;;5025179;28;20617;-82
2022/10/30 08:27:23;;;;;;;34.20;24.20;;;13.50;99.90;;;;;;5033163;28;20044;-83
2022/10/30 08:29:49;;;;;;;30.35;24.27;;;13.50;99.90;;;;;;5053134;28;20447;-83
2022/10/30 08:32:15;;;;;;;28.70;24.08;;;13.60;99.90;;;;;;5034322;28;20044;-82
2022/10/30 08:34:41;;;;;;;30.90;23.83;;;13.60;99.90;;;;;;5023102;28;20055;-82
2022/10/30 08:37:06;;;;;;;26.95;22.02;;;13.70;99.90;;;;;;5037963;28;20040;-82
2022/10/30 08:39:32;;;;;;;36.10;23.70;;;13.80;99.90;;;;;;5046852;28;20051;-82
2022/10/30 08:42:01;;;;;;;29.15;23.08;;;13.90;99.90;;;;;;5041358;28;20033;-82
2022/10/30 08:44:27;;;;;;;28.17;24.40;;;13.90;99.90;;;;;;5029626;28;20076;-82
2022/10/30 08:46:53;;;;;;;35.10;27.33;;;14.00;99.90;;;;;;5029460;28;20068;-82
2022/10/30 08:49:19;;;;;;;32.92;24.20;;;14.10;99.90;;;;;;5050356;28;20113;-82
2022/10/30 08:51:45;;;;;;;28.60;23.02;;;14.10;99.90;;;;;;5032320;28;20055;-82
2022/10/30 08:54:10;;;;;;;25.15;22.00;;;14.20;99.90;;;;;;5036957;28;20044;-83
2022/10/30 08:56:36;;;;;;;28.08;23.88;;;14.20;99.90;;;;;;5051946;28;20106;-82
2022/10/30 08:59:02;;;;;;;33.17;25.77;;;14.30;99.90;;;;;;5046536;28;20041;-83
2022/10/30 09:01:28;;;;;;;27.83;24.70;;;14.30;99.90;;;;;;5041679;28;20055;-83
2022/10/30 09:03:54;;;;;;;30.25;24.50;;;14.40;99.90;;;;;;5021572;28;20069;-83
2022/10/30 09:06:20;;;;;;;25.33;22.45;;;14.40;99.90;;;;;;5022892;28;20550;-82
2022/10/30 09:08:46;;;;;;;32.90;24.95;;;14.50;99.90;;;;;;5047175;28;20033;-83
2022/10/30 09:11:17;;;;;;;34.45;25.85;;;14.60;99.90;;;;;;5049990;28;20083;-83
2022/10/30 09:13:43;;;;;;;32.58;27.10;;;14.60;99.90;;;;;;5024253;28;20566;-83
2022/10/30 09:16:08;;;;;;;32.83;22.77;;;14.70;99.90;;;;;;5037901;28;20072;-83
2022/10/30 09:18:34;;;;;;;33.75;23.83;;;14.80;99.90;;;;;;5061579;28;20510;-83
2022/10/30 09:21:00;;;;;;;32.35;23.55;;;14.90;99.90;;;;;;5027708;28;20133;-83
2022/10/30 09:23:26;;;;;;;26.42;23.45;;;15.00;99.90;;;;;;5016092;28;20056;-82
2022/10/30 09:25:51;;;;;;;29.60;23.35;;;15.10;99.90;;;;;;5044998;28;20045;-83
2022/10/30 09:28:17;;;;;;;27.15;23.63;;;15.20;99.90;;;;;;5028801;28;20059;-83
2022/10/30 09:30:43;;;;;;;31.73;23.45;;;15.30;99.90;;;;;;5049867;28;20041;-83
2022/10/30 09:33:09;;;;;;;30.02;23.08;;;15.40;99.90;;;;;;5047051;28;20076;-82
2022/10/30 09:35:35;;;;;;;28.80;22.48;;;15.40;99.90;;;;;;5048183;28;20045;-82
2022/10/30 09:38:01;;;;;;;25.20;22.20;;;15.50;99.90;;;;;;5030242;28;20041;-82
2022/10/30 09:40:37;;;;;;;31.75;23.10;;;15.60;99.90;;;;;;5031389;28;20045;-83
2022/10/30 09:43:33;;;;;;;30.48;23.63;;;15.70;99.90;;;;;;5037514;28;20045;-82
2022/10/30 09:46:15;;;;;;;31.83;23.02;;;15.80;99.90;;;;;;5048092;28;20048;-82
2022/10/30 09:49:04;;;;;;;27.33;22.90;;;15.80;99.90;;;;;;5030321;28;20053;-83
2022/10/30 09:52:07;;;;;;;33.00;23.55;;;16.00;99.90;;;;;;5049391;28;20155;-82
2022/10/30 09:54:45;;;;;;;28.10;22.45;;;16.10;99.90;;;;;;5032307;28;20049;-83
2022/10/30 09:57:24;;;;;;;29.17;21.98;;;16.20;99.90;;;;;;5054905;28;20513;-82
2022/10/30 09:59:55;;;;;;;28.60;22.83;;;16.30;99.90;;;;;;5047719;28;20056;-82
2022/10/30 10:02:30;;;;;;;26.80;20.88;;;16.40;99.90;;;;;;5040271;28;20078;-82
2022/10/30 10:05:42;;;;;;;27.48;20.88;;;16.50;99.90;;;;;;5050736;28;20040;-83
2022/10/30 10:08:14;;;;;;;27.08;20.25;;;16.60;99.90;;;;;;5039574;28;20128;-83
2022/10/30 10:10:48;;;;;;;34.22;21.48;;;16.70;99.90;;;;;;5030369;28;20045;-83
2022/10/30 10:13:37;;;;;;;27.85;20.88;;;16.80;99.90;;;;;;5062332;28;20134;-84
2022/10/30 10:16:43;;;;;;;28.70;20.77;;;16.80;99.90;;;;;;5048859;28;20110;-83
2022/10/30 10:19:20;;;;;;;29.92;20.85;;;16.90;99.90;;;;;;4987803;28;20519;-83
2022/10/30 10:21:56;;;;;;;27.17;19.40;;;16.90;99.90;;;;;;5009058;28;20120;-83
2022/10/30 10:24:32;;;;;;;23.77;18.55;;;17.00;99.90;;;;;;5012058;28;20064;-83
2022/10/30 10:27:20;;;;;;;24.55;18.05;;;17.10;99.90;;;;;;5060249;28;20044;-83
2022/10/30 10:30:20;;;;;;;25.80;18.55;;;17.10;99.90;;;;;;5076440;28;20187;-84
2022/10/30 10:33:04;;;;;;;22.80;17.13;;;17.20;99.90;;;;;;5044482;28;20040;-84
2022/10/30 10:35:57;;;;;;;25.38;18.58;;;17.30;99.90;;;;;;5039705;28;20131;-83
2022/10/30 10:38:55;;;;;;;26.85;17.60;;;17.30;99.90;;;;;;5037862;28;20052;-83
2022/10/30 10:41:30;;;;;;;25.45;18.90;;;17.30;99.90;;;;;;5044548;28;20354;-83
2022/10/30 10:44:11;;;;;;;24.73;18.98;;;17.30;99.90;;;;;;5061254;28;20044;-84
2022/10/30 10:46:45;;;;;;;22.17;16.45;;;17.40;99.90;;;;;;5053196;28;20056;-83
2022/10/30 10:49:22;;;;;;;24.52;15.80;;;17.50;99.90;;;;;;5062753;28;20050;-83
2022/10/30 10:51:54;;;;;;;21.85;14.73;;;17.60;99.90;;;;;;5044122;28;20043;-84
2022/10/30 10:54:26;;;;;;;20.00;13.85;;;17.60;99.90;;;;;;5037037;28;20060;-83
2022/10/30 10:56:53;;;;;;;21.38;14.35;;;17.70;99.90;;;;;;5056755;28;20048;-83
2022/10/30 10:59:24;;;;;;;22.30;14.68;;;17.80;99.90;;;;;;5061598;28;20060;-83
2022/10/30 11:02:27;;;;;;;21.60;13.65;;;17.80;99.90;;;;;;5063545;28;20094;-83
2022/10/30 11:04:56;;;;;;;21.17;14.25;;;17.90;99.90;;;;;;5033463;28;20719;-83
2022/10/30 11:07:28;;;;;;;23.85;13.63;;;18.00;99.90;;;;;;5059946;28;20105;-84
2022/10/30 11:09:55;;;;;;;20.27;13.45;;;18.00;99.90;;;;;;5051616;28;20558;-83
2022/10/30 11:12:30;;;;;;;25.88;14.52;;;18.10;99.90;;;;;;5058518;28;20048;-83
2022/10/30 11:15:00;;;;;;;27.48;14.98;;;18.10;99.90;;;;;;5047649;28;20040;-83
2022/10/30 11:17:31;;;;;;;21.65;15.10;;;18.20;99.90;;;;;;5041870;28;20043;-81
2022/10/30 11:20:13;;;;;;;22.13;14.93;;;18.20;99.90;;;;;;5046144;28;20060;-82
2022/10/30 11:22:45;;;;;;;19.05;14.30;;;18.20;99.90;;;;;;5058595;28;20046;-82
2022/10/30 11:25:19;;;;;;;19.65;13.77;;;18.20;99.90;;;;;;5045382;28;20044;-82
2022/10/30 11:28:09;;;;;;;20.95;14.55;;;18.30;99.90;;;;;;5063666;28;20044;-83
2022/10/30 11:30:35;;;;;;;21.48;14.77;;;18.30;99.90;;;;;;5050695;28;20658;-82
2022/10/30 11:33:21;;;;;;;20.30;14.60;;;18.40;99.90;;;;;;5044431;28;20036;-82
2022/10/30 11:35:47;;;;;;;25.50;15.73;;;18.40;99.90;;;;;;5059759;28;20044;-82
2022/10/30 11:38:20;;;;;;;20.25;16.42;;;18.40;99.90;;;;;;5052150;28;20036;-83
2022/10/30 11:40:48;;;;;;;17.48;14.93;;;18.40;99.90;;;;;;5060375;28;20045;-83
2022/10/30 11:43:21;;;;;;;20.08;16.85;;;18.50;99.90;;;;;;5051797;28;20078;-82
2022/10/30 11:45:47;;;;;;;25.98;16.98;;;18.50;99.90;;;;;;5042344;28;20153;-82
2022/10/30 11:48:28;;;;;;;24.35;16.73;;;18.50;99.90;;;;;;5034668;28;20055;-82
2022/10/30 11:51:03;;;;;;;19.40;16.00;;;18.60;99.90;;;;;;5038581;28;20770;-82
2022/10/30 11:53:45;;;;;;;21.55;16.95;;;18.70;99.90;;;;;;5039538;28;20045;-82
2022/10/30 11:56:22;;;;;;;22.73;14.98;;;18.80;99.90;;;;;;5041602;28;20106;-81
2022/10/30 11:58:57;;;;;;;20.17;14.30;;;18.80;99.90;;;;;;5067932;28;20068;-82
2022/10/30 12:01:23;;;;;;;19.77;14.32;;;18.90;99.90;;;;;;5055218;28;20051;-82
2022/10/30 12:03:50;;;;;;;23.98;15.57;;;18.90;99.90;;;;;;5035882;28;20052;-82
2022/10/30 12:06:22;;;;;;;21.42;14.30;;;18.90;99.90;;;;;;5009931;28;20044;-82
2022/10/30 12:09:11;;;;;;;21.55;15.43;;;18.90;99.90;;;;;;5041463;28;20143;-82
2022/10/30 12:11:42;;;;;;;19.17;14.20;;;18.90;99.90;;;;;;5053015;28;20052;-82
2022/10/30 12:14:14;;;;;;;22.13;15.13;;;18.90;99.90;;;;;;5043591;28;20055;-82
2022/10/30 12:16:46;;;;;;;22.95;14.45;;;18.90;99.90;;;;;;5057607;28;20067;-83
2022/10/30 12:19:14;;;;;;;21.52;14.00;;;18.90;99.90;;;;;;5033338;28;20140;-82
2022/10/30 12:21:47;;;;;;;25.27;14.27;;;19.00;99.90;;;;;;5049762;28;20045;-82
2022/10/30 12:24:20;;;;;;;20.17;13.40;;;19.00;99.90;;;;;;5059515;28;20044;-82
2022/10/30 12:26:50;;;;;;;21.30;13.50;;;19.00;99.90;;;;;;5046673;28;20537;-82
2022/10/30 12:29:18;;;;;;;22.23;13.70;;;19.00;99.90;;;;;;5045947;28;20053;-81
2022/10/30 12:32:06;;;;;;;20.95;13.77;;;19.00;99.90;;;;;;5028654;28;20616;-81
2022/10/30 12:34:46;;;;;;;17.88;11.88;;;19.00;99.90;;;;;;5029127;28;20759;-82
2022/10/30 12:37:30;;;;;;;17.95;12.20;;;18.90;99.90;;;;;;5047269;28;20044;-82
2022/10/30 12:40:07;;;;;;;21.38;13.07;;;19.00;99.90;;;;;;5054680;28;20072;-81
2022/10/30 12:42:41;;;;;;;18.23;12.68;;;19.00;99.90;;;;;;5059521;28;20056;-81